Time;durP1;ratioP1;P1;durP2;ratioP2;P2;SDS_P1;SDS_P2;PMS_P1;PMS_P2;Temp;Humidity;BMP_temperature;BMP_pressure;BME280_temperature;BME280_humidity;BME280_pressure;Samples;Min_cycle;Max_cycle;Signal;HPM_P1;HPM_P2
2022/09/19 00:01:11;;;;;;;2.10;0.90;;;;;;;13.82;47.48;101119.19;5028337;28;20396;-62
2022/09/19 00:03:42;;;;;;;2.17;0.90;;;;;;;13.79;47.90;101121.38;5029136;28;20397;-62
2022/09/19 00:06:09;;;;;;;2.13;1.15;;;;;;;13.73;48.02;101120.28;5028029;28;20455;-61
2022/09/19 00:08:38;;;;;;;2.20;0.90;;;;;;;13.70;48.03;101123.28;5028092;28;20470;-61
2022/09/19 00:11:09;;;;;;;1.95;0.98;;;;;;;13.67;47.98;101127.16;5029478;28;20395;-62
2022/09/19 00:13:37;;;;;;;2.35;1.00;;;;;;;13.71;47.70;101122.28;5026088;28;20484;-61
2022/09/19 00:16:04;;;;;;;1.57;0.93;;;;;;;13.65;47.42;101109.69;5025841;28;20832;-62
2022/09/19 00:18:30;;;;;;;1.50;0.85;;;;;;;13.70;47.51;101121.47;5026506;28;20735;-61
2022/09/19 00:25:37;;;;;;;2.78;0.90;;;;;;;13.58;47.30;101117.59;5078232;28;20441;-61
2022/09/19 00:28:02;;;;;;;2.33;0.93;;;;;;;13.55;47.44;101113.44;5081255;28;20391;-61
2022/09/19 00:30:28;;;;;;;3.00;0.90;;;;;;;13.55;47.16;101118.75;5087432;28;20370;-62
2022/09/19 00:32:53;;;;;;;1.00;0.67;;;;;;;13.52;47.17;101111.16;5072304;28;20467;-61
2022/09/19 00:35:19;;;;;;;1.97;0.80;;;;;;;13.51;46.78;101109.47;5083152;28;20389;-61
2022/09/19 00:37:45;;;;;;;2.05;0.93;;;;;;;13.50;46.64;101107.81;5077867;28;20491;-62
2022/09/19 00:40:11;;;;;;;2.00;0.80;;;;;;;13.51;46.82;101116.66;5066711;28;20463;-61
2022/09/19 00:42:36;;;;;;;1.45;0.80;;;;;;;13.48;46.66;101122.31;5080282;28;20445;-61
2022/09/19 00:47:02;;;;;;;1.00;0.60;;;;;;;13.41;46.54;101110.72;5038022;28;20410;-61
2022/09/19 00:49:31;;;;;;;2.63;0.82;;;;;;;13.39;47.00;101114.38;5013850;28;20407;-62
2022/09/19 00:55:55;;;;;;;1.25;0.90;;;;;;;13.38;47.20;101117.25;5043830;28;20419;-61
2022/09/19 00:58:26;;;;;;;1.05;0.68;;;;;;;13.33;47.15;101109.78;5026945;28;20409;-60
2022/09/19 01:02:28;;;;;;;1.33;0.70;;;;;;;13.30;47.22;101110.09;5046264;28;20410;-61
2022/09/19 01:04:54;;;;;;;1.95;0.75;;;;;;;13.29;47.34;101107.63;5019483;28;20458;-62
2022/09/19 01:07:41;;;;;;;1.38;0.60;;;;;;;13.29;47.15;101104.94;5045977;28;20410;-61
2022/09/19 01:10:10;;;;;;;2.28;0.90;;;;;;;13.25;47.13;101096.50;5018500;28;20414;-61
2022/09/19 01:12:47;;;;;;;2.05;0.70;;;;;;;13.26;47.24;101108.00;5027216;28;20434;-61
2022/09/19 01:15:19;;;;;;;1.58;0.73;;;;;;;13.22;47.02;101099.53;5022291;28;20466;-62
2022/09/19 01:17:54;;;;;;;0.65;0.55;;;;;;;13.18;47.17;101093.72;5024492;28;20391;-61
2022/09/19 01:23:25;;;;;;;2.07;0.70;;;;;;;13.22;47.21;101091.53;5055203;27;2039648;-62
2022/09/19 01:25:58;;;;;;;1.50;0.73;;;;;;;13.27;47.00;101094.50;5017013;28;20779;-61
2022/09/19 01:28:36;;;;;;;2.33;0.80;;;;;;;13.27;47.15;101098.97;5028539;28;20390;-62
2022/09/19 01:31:17;;;;;;;1.60;0.70;;;;;;;13.25;47.04;101082.38;5073540;28;20400;-61
2022/09/19 01:33:53;;;;;;;4.13;0.90;;;;;;;13.26;47.09;101082.19;5106930;28;20438;-61
2022/09/19 01:40:43;;;;;;;2.50;0.70;;;;;;;13.25;47.51;101077.03;5065700;28;20408;-61
2022/09/19 01:43:38;;;;;;;1.17;0.80;;;;;;;13.22;47.55;101074.72;5036867;28;20463;-61
2022/09/19 01:46:35;;;;;;;1.77;0.70;;;;;;;13.20;47.48;101078.41;5026891;28;20410;-62
2022/09/19 01:49:51;;;;;;;1.00;0.60;;;;;;;13.22;47.89;101085.38;5053322;28;20818;-62
2022/09/19 01:52:48;;;;;;;1.73;0.73;;;;;;;13.20;47.68;101080.25;5020362;28;20405;-62
2022/09/19 01:56:01;;;;;;;1.73;0.75;;;;;;;13.22;47.79;101083.56;5046467;28;20915;-62
2022/09/19 01:58:48;;;;;;;3.42;0.68;;;;;;;13.18;48.06;101085.75;5045612;28;20389;-62
2022/09/19 02:01:50;;;;;;;1.48;1.10;;;;;;;13.10;48.43;101075.16;5051633;28;20410;-62
2022/09/19 02:04:23;;;;;;;1.90;0.80;;;;;;;13.08;48.39;101076.34;5027062;28;20411;-61
2022/09/19 02:11:14;;;;;;;3.20;1.00;;;;;;;12.89;48.37;101082.94;5078207;27;20408;-62
2022/09/19 02:13:45;;;;;;;1.30;0.80;;;;;;;12.80;48.42;101090.16;5052565;28;20408;-62
2022/09/19 02:16:30;;;;;;;1.87;0.90;;;;;;;12.69;48.63;101071.94;5037354;28;20393;-62
2022/09/19 02:19:05;;;;;;;1.70;0.90;;;;;;;12.79;48.46;101086.66;5060712;28;20387;-62
2022/09/19 02:21:45;;;;;;;1.95;0.80;;;;;;;12.75;48.29;101068.59;5046820;28;20398;-61
2022/09/19 02:24:14;;;;;;;2.10;0.73;;;;;;;12.78;48.41;101073.53;5060188;28;20785;-62
2022/09/19 02:28:38;;;;;;;2.10;0.80;;;;;;;12.65;48.61;101073.28;5044877;28;20781;-62
2022/09/19 02:31:05;;;;;;;3.35;0.98;;;;;;;12.49;49.01;101067.03;5026712;28;20833;-62
2022/09/19 02:33:34;;;;;;;1.50;0.70;;;;;;;12.41;49.26;101073.22;5027391;28;20394;-62
2022/09/19 02:38:34;;;;;;;3.03;0.90;;;;;;;12.39;49.07;101072.59;5074674;27;20413;-61
2022/09/19 02:42:28;;;;;;;2.40;0.90;;;;;;;12.38;49.14;101070.91;5054143;28;20919;-61
2022/09/19 02:45:11;;;;;;;1.40;0.90;;;;;;;12.41;48.93;101072.41;5032749;28;20926;-62
2022/09/19 02:47:48;;;;;;;1.53;0.90;;;;;;;12.39;48.91;101066.44;5033226;28;20911;-61
2022/09/19 02:50:22;;;;;;;1.97;0.90;;;;;;;12.34;49.20;101066.94;5017367;28;20379;-62
2022/09/19 02:52:51;;;;;;;1.20;0.80;;;;;;;12.33;49.23;101059.97;5041937;28;20407;-62
2022/09/19 02:55:25;;;;;;;2.00;0.70;;;;;;;12.41;49.43;101064.44;5026941;28;20383;-61
2022/09/19 02:57:55;;;;;;;1.50;0.80;;;;;;;12.49;49.02;101069.69;5026618;28;20395;-61
2022/09/19 03:00:21;;;;;;;2.25;1.05;;;;;;;12.48;48.72;101068.06;5026111;28;20415;-61
2022/09/19 03:06:38;;;;;;;1.92;0.80;;;;;;;12.33;49.16;101064.47;5092751;28;20411;-61
2022/09/19 03:09:06;;;;;;;1.52;0.70;;;;;;;12.36;49.01;101061.47;5094797;28;20421;-61
2022/09/19 03:11:34;;;;;;;1.25;0.80;;;;;;;12.34;49.17;101055.50;5087122;28;20474;-61
2022/09/19 03:14:00;;;;;;;1.20;0.90;;;;;;;12.36;49.18;101056.97;5097571;28;20385;-62
2022/09/19 03:16:34;;;;;;;2.58;1.00;;;;;;;12.41;49.13;101061.78;5090426;28;20791;-61
2022/09/19 03:19:03;;;;;;;2.22;0.90;;;;;;;12.43;49.30;101057.13;5093060;28;20386;-62
2022/09/19 03:21:29;;;;;;;7.00;1.17;;;;;;;12.37;49.29;101053.31;5091631;28;20393;-62
2022/09/19 03:23:58;;;;;;;2.72;0.95;;;;;;;12.36;49.18;101048.19;5082372;28;20387;-61
2022/09/19 03:26:30;;;;;;;2.93;0.97;;;;;;;12.30;49.61;101040.88;5096196;28;20478;-62
2022/09/19 03:28:56;;;;;;;1.52;0.90;;;;;;;12.28;49.51;101051.72;5095772;28;20398;-60
2022/09/19 03:31:23;;;;;;;3.08;1.40;;;;;;;12.30;49.46;101049.69;5092827;28;20398;-62
2022/09/19 03:33:51;;;;;;;2.67;0.90;;;;;;;12.22;49.32;101044.41;5089684;28;20386;-61
2022/09/19 03:36:17;;;;;;;3.60;1.27;;;;;;;12.07;49.73;101041.66;5095580;28;20863;-61
2022/09/19 03:38:44;;;;;;;3.37;1.00;;;;;;;12.05;49.60;101036.50;5087309;28;20963;-62
2022/09/19 03:41:17;;;;;;;3.10;1.30;;;;;;;12.00;49.56;101028.22;5091445;28;20919;-61
2022/09/19 03:46:02;;;;;;;6.22;1.80;;;;;;;12.13;49.79;101032.16;5090553;27;20432;-61
2022/09/19 03:48:28;;;;;;;5.87;1.40;;;;;;;12.17;49.66;101023.69;5083718;28;20402;-62
2022/09/19 03:50:54;;;;;;;6.30;1.70;;;;;;;12.22;49.70;101031.13;5089280;28;20470;-61
2022/09/19 03:53:20;;;;;;;4.50;1.30;;;;;;;12.20;49.75;101028.63;5087521;28;20808;-61
2022/09/19 03:55:46;;;;;;;8.02;1.90;;;;;;;12.21;50.00;101032.94;5086656;28;20405;-61
2022/09/19 03:58:12;;;;;;;5.25;1.50;;;;;;;12.22;50.17;101028.47;5091072;28;20489;-61
2022/09/19 04:02:56;;;;;;;3.95;1.50;;;;;;;12.17;50.42;101026.34;5056103;27;20400;-62
2022/09/19 04:05:22;;;;;;;4.32;1.48;;;;;;;12.18;50.16;101027.16;5053188;28;20468;-62
2022/09/19 04:07:48;;;;;;;3.05;1.95;;;;;;;12.13;50.39;101024.19;5058074;28;20841;-62
2022/09/19 04:10:14;;;;;;;2.92;1.58;;;;;;;12.07;50.24;101027.53;5057430;28;20404;-62
2022/09/19 04:12:39;;;;;;;3.63;1.60;;;;;;;11.90;50.39;101018.75;5047879;28;20407;-62
2022/09/19 04:15:05;;;;;;;3.60;1.40;;;;;;;11.85;50.64;101022.75;5055802;28;20886;-62
2022/09/19 04:17:32;;;;;;;3.65;1.60;;;;;;;12.00;50.05;101022.91;5056312;28;20497;-62
2022/09/19 04:19:57;;;;;;;4.97;1.60;;;;;;;11.98;49.98;101021.41;5051408;28;20389;-62
2022/09/19 04:22:23;;;;;;;4.03;1.60;;;;;;;11.85;50.54;101020.09;5049631;28;20453;-62
2022/09/19 04:24:49;;;;;;;3.37;1.37;;;;;;;11.91;50.14;101017.78;5049151;28;20386;-61
2022/09/19 04:27:14;;;;;;;9.55;2.60;;;;;;;11.90;50.31;101016.94;5064707;28;20434;-63
2022/09/19 04:29:43;;;;;;;6.43;2.87;;;;;;;11.92;50.32;101011.47;5062305;28;20418;-62
2022/09/19 04:32:09;;;;;;;8.57;2.20;;;;;;;11.95;50.69;101024.41;5049556;28;20392;-62
2022/09/19 04:34:35;;;;;;;7.13;1.70;;;;;;;11.99;50.69;101015.94;5069884;28;20390;-62
2022/09/19 04:37:06;;;;;;;6.45;2.00;;;;;;;12.21;50.43;101029.47;5067667;28;20398;-62
2022/09/19 04:39:32;;;;;;;4.68;2.20;;;;;;;12.45;50.06;101030.34;5063983;28;20395;-61
2022/09/19 04:41:59;;;;;;;6.80;2.75;;;;;;;12.80;49.33;101029.81;5068760;28;20465;-62
2022/09/19 04:44:29;;;;;;;7.10;2.63;;;;;;;13.19;48.39;101025.34;5067821;28;20409;-62
2022/09/19 04:46:58;;;;;;;5.40;1.98;;;;;;;13.45;47.16;101013.47;5068283;28;20797;-61
2022/09/19 04:49:36;;;;;;;5.83;2.80;;;;;;;13.67;46.79;101017.13;5066735;28;20908;-61
2022/09/19 04:52:03;;;;;;;4.68;2.50;;;;;;;13.81;46.59;101026.09;5054263;28;20384;-61
2022/09/19 04:54:29;;;;;;;5.15;2.40;;;;;;;13.82;46.28;101017.94;5063578;28;20384;-62
2022/09/19 04:56:55;;;;;;;4.65;2.20;;;;;;;13.96;45.78;101027.75;5064056;28;20384;-64
2022/09/19 04:59:20;;;;;;;4.35;2.85;;;;;;;14.06;45.69;101029.31;5064644;28;20472;-63
2022/09/19 05:01:46;;;;;;;6.03;3.00;;;;;;;14.07;45.46;101029.13;5064151;28;20490;-64
2022/09/19 05:04:18;;;;;;;7.18;4.25;;;;;;;14.15;45.04;101029.03;5065590;28;20419;-62
2022/09/19 05:06:43;;;;;;;21.50;13.17;;;;;;;14.38;44.23;101027.25;5061137;28;20394;-63
2022/09/19 05:09:11;;;;;;;13.20;7.80;;;;;;;14.58;43.82;101024.84;5056200;28;20370;-62
2022/09/19 05:11:40;;;;;;;7.95;3.60;;;;;;;14.79;43.13;101040.88;5058452;28;20876;-62
2022/09/19 05:14:08;;;;;;;8.90;3.28;;;;;;;15.17;42.97;101042.47;5046192;28;20386;-62
2022/09/19 05:16:33;;;;;;;6.93;4.55;;;;;;;15.62;42.13;101037.66;5035737;28;20375;-63
2022/09/19 05:18:59;;;;;;;8.60;4.00;;;;;;;16.08;41.43;101047.00;5050209;28;20443;-61
2022/09/19 05:21:24;;;;;;;7.50;3.15;;;;;;;16.37;40.64;101044.06;5050815;28;20810;-62
2022/09/19 05:23:50;;;;;;;6.30;2.53;;;;;;;16.73;39.92;101045.63;5050612;28;20459;-61
2022/09/19 05:26:16;;;;;;;4.25;2.08;;;;;;;17.02;39.33;101051.66;5055307;28;20492;-62
2022/09/19 05:28:43;;;;;;;5.35;1.80;;;;;;;17.30;38.77;101050.63;5050085;28;20377;-62
2022/09/19 05:31:09;;;;;;;5.50;1.90;;;;;;;17.62;38.38;101053.50;5050298;28;20396;-62
2022/09/19 05:33:36;;;;;;;3.33;1.50;;;;;;;17.87;37.45;101057.22;5051564;28;20373;-62
2022/09/19 05:36:03;;;;;;;4.43;2.40;;;;;;;18.06;36.83;101044.78;5035123;28;20394;-62
2022/09/19 05:38:30;;;;;;;5.05;3.00;;;;;;;18.20;36.46;101039.38;5032141;28;20448;-62
2022/09/19 05:40:57;;;;;;;4.82;2.15;;;;;;;18.11;36.28;101039.63;5048802;28;20443;-62
2022/09/19 05:43:23;;;;;;;6.00;2.40;;;;;;;18.44;36.44;101035.13;5041944;28;20455;-62
2022/09/19 05:45:53;;;;;;;6.10;3.33;;;;;;;18.56;36.29;101033.41;5047283;28;20873;-62
2022/09/19 05:48:19;;;;;;;3.45;1.90;;;;;;;18.77;36.16;101032.25;5047021;28;20393;-62
2022/09/19 05:50:46;;;;;;;5.28;2.25;;;;;;;19.44;35.69;101034.47;5040350;28;20537;-64
2022/09/19 05:55:58;;;;;;;3.47;1.63;;;;;;;19.87;35.21;101028.25;5032974;28;20393;-63
2022/09/19 05:58:24;;;;;;;1.60;1.50;;;;;;;20.18;34.63;101019.19;5034229;28;20377;-63
2022/09/19 06:00:50;;;;;;;2.15;1.55;;;;;;;20.23;34.59;101027.41;5032363;28;20421;-62
2022/09/19 06:03:17;;;;;;;1.92;1.38;;;;;;;20.05;34.59;101032.81;5033417;28;20398;-64
2022/09/19 06:05:51;;;;;;;3.00;1.38;;;;;;;20.50;34.61;101018.16;5032804;28;20497;-63
2022/09/19 06:10:39;;;;;;;2.38;1.40;;;;;;;20.88;34.61;101017.03;5074070;27;20408;-64
2022/09/19 06:13:20;;;;;;;2.55;1.50;;;;;;;21.13;34.67;101011.44;5064665;28;20413;-64
2022/09/19 06:15:46;;;;;;;2.90;1.40;;;;;;;21.64;34.17;101015.31;5064408;28;20388;-64
2022/09/19 06:18:12;;;;;;;2.78;1.13;;;;;;;22.03;33.55;101012.09;5066394;28;20908;-64
2022/09/19 06:20:39;;;;;;;2.30;1.00;;;;;;;22.09;33.57;101000.34;5060895;28;20970;-64
2022/09/19 06:23:07;;;;;;;3.13;1.67;;;;;;;22.17;33.78;101010.78;5059052;28;20384;-64
2022/09/19 06:25:35;;;;;;;4.45;1.48;;;;;;;22.62;32.96;101003.81;5062794;28;20482;-64
2022/09/19 06:28:06;;;;;;;4.10;1.40;;;;;;;23.50;31.36;101004.13;5065893;28;20455;-64
2022/09/19 06:30:33;;;;;;;4.60;1.70;;;;;;;25.03;29.28;101006.09;5065943;28;20396;-64
2022/09/19 06:32:59;;;;;;;5.10;1.60;;;;;;;26.48;26.89;100992.97;5066005;28;20384;-64
2022/09/19 06:35:28;;;;;;;4.33;1.50;;;;;;;27.07;25.92;100994.38;5066517;28;20757;-64
2022/09/19 06:38:00;;;;;;;5.20;1.60;;;;;;;26.46;26.47;100989.72;5064045;28;20418;-64
2022/09/19 06:40:26;;;;;;;2.57;1.40;;;;;;;25.75;27.15;101001.97;5055133;28;20828;-64
2022/09/19 06:43:03;;;;;;;5.07;1.85;;;;;;;24.87;28.30;100992.44;5065564;28;20475;-64
2022/09/19 06:45:38;;;;;;;5.68;1.50;;;;;;;25.59;27.27;101003.78;5066323;28;20384;-65
2022/09/19 06:48:05;;;;;;;4.03;1.70;;;;;;;26.27;26.14;100992.09;5049826;28;20875;-64
2022/09/19 06:50:31;;;;;;;2.20;1.58;;;;;;;26.57;25.80;100976.94;5054542;28;20450;-64
2022/09/19 06:52:58;;;;;;;4.90;1.60;;;;;;;27.00;25.57;100980.22;5051904;28;20421;-64
2022/09/19 06:55:25;;;;;;;3.53;1.70;;;;;;;25.69;26.46;100998.41;5066125;28;20395;-64
2022/09/19 06:58:10;;;;;;;3.50;1.30;;;;;;;24.64;28.23;100990.06;5053233;28;20389;-65
2022/09/19 07:00:37;;;;;;;1.80;1.40;;;;;;;24.20;29.02;100980.94;5045552;28;20909;-65
2022/09/19 07:03:06;;;;;;;3.22;1.40;;;;;;;23.89;29.67;100985.16;5059210;28;20390;-64
2022/09/19 07:05:34;;;;;;;1.48;1.30;;;;;;;23.42;30.54;100999.94;5045825;28;20484;-65
2022/09/19 07:08:00;;;;;;;2.08;1.38;;;;;;;23.47;30.61;101002.72;5045803;28;20389;-65
2022/09/19 07:10:26;;;;;;;3.45;1.50;;;;;;;23.43;30.84;101003.50;5063782;28;20416;-64
2022/09/19 07:13:01;;;;;;;2.33;1.15;;;;;;;22.53;31.60;101009.59;5055468;28;20388;-64
2022/09/19 07:15:37;;;;;;;2.22;1.33;;;;;;;22.33;32.31;101001.13;5059548;28;20922;-65
2022/09/19 07:18:08;;;;;;;2.03;1.33;;;;;;;22.36;32.38;101003.31;5045643;28;20883;-64
2022/09/19 07:20:35;;;;;;;3.42;1.50;;;;;;;22.33;32.56;101004.63;5043526;28;20381;-65
2022/09/19 07:23:07;;;;;;;1.65;1.10;;;;;;;22.11;32.72;101009.84;5047803;28;20384;-64
2022/09/19 07:26:30;;;;;;;4.60;1.30;;;;;;;21.70;33.55;101018.97;5018377;27;2162713;-63
2022/09/19 07:28:55;;;;;;;4.30;1.20;;;;;;;21.60;33.73;101016.06;5085683;28;20398;-64
2022/09/19 07:31:20;;;;;;;2.90;1.57;;;;;;;21.70;33.53;101018.97;5085955;28;20390;-64
2022/09/19 07:33:47;;;;;;;3.60;1.40;;;;;;;21.54;33.60;101026.72;5083409;28;20379;-64
2022/09/19 07:36:12;;;;;;;3.42;1.50;;;;;;;21.47;33.91;101030.59;5085707;28;20861;-65
2022/09/19 07:38:38;;;;;;;2.90;1.20;;;;;;;21.50;33.83;101020.16;5086092;28;20378;-65
2022/09/19 07:41:04;;;;;;;4.17;1.70;;;;;;;21.57;33.93;101012.78;5085687;28;20382;-64
2022/09/19 07:43:30;;;;;;;3.10;1.30;;;;;;;21.83;32.99;101010.63;5085991;28;20529;-64
2022/09/19 07:45:55;;;;;;;5.32;1.60;;;;;;;22.01;32.92;101012.34;5085742;28;20911;-64
2022/09/19 07:48:21;;;;;;;5.27;1.77;;;;;;;22.02;32.81;101024.78;5083982;28;20390;-65
2022/09/19 07:50:49;;;;;;;1.70;1.10;;;;;;;22.05;32.24;101015.38;5086040;28;20457;-65
2022/09/19 07:53:17;;;;;;;1.98;0.90;;;;;;;22.22;31.37;101001.94;5085627;28;20378;-65
2022/09/19 07:55:48;;;;;;;3.00;1.15;;;;;;;22.15;31.21;100997.50;5085203;28;20892;-64
2022/09/19 07:58:13;;;;;;;2.15;1.08;;;;;;;21.92;31.42;101002.97;5085295;28;20887;-65
2022/09/19 08:00:40;;;;;;;2.90;1.10;;;;;;;21.73;31.73;100999.59;5085439;28;20436;-66
2022/09/19 08:03:10;;;;;;;1.65;0.90;;;;;;;21.64;32.05;101003.72;5081777;28;20437;-65
2022/09/19 08:05:39;;;;;;;3.05;0.90;;;;;;;21.95;31.73;101000.63;5079038;28;20483;-64
2022/09/19 08:08:07;;;;;;;1.60;1.10;;;;;;;21.81;32.00;100990.34;5076641;28;20378;-64
2022/09/19 08:10:33;;;;;;;3.88;1.63;;;;;;;21.54;32.52;101004.34;5066736;28;20900;-65
2022/09/19 08:13:03;;;;;;;1.73;1.10;;;;;;;21.46;32.54;101000.09;5065911;28;20385;-65
2022/09/19 08:15:30;;;;;;;3.75;1.60;;;;;;;21.58;32.77;100998.22;5066157;28;20472;-64
2022/09/19 08:18:00;;;;;;;2.33;1.38;;;;;;;21.59;33.10;100999.06;5075366;28;20388;-64
2022/09/19 08:20:28;;;;;;;2.47;1.50;;;;;;;21.37;33.67;100990.69;5063485;28;20394;-65
2022/09/19 08:22:58;;;;;;;4.25;1.65;;;;;;;21.43;34.14;100986.22;5065719;28;20388;-65
2022/09/19 08:25:25;;;;;;;2.08;1.38;;;;;;;21.37;33.92;100975.34;5065144;28;20432;-65
2022/09/19 08:27:51;;;;;;;2.60;1.40;;;;;;;21.31;34.11;100970.88;5067538;28;20785;-65
2022/09/19 08:30:20;;;;;;;2.75;1.35;;;;;;;21.38;33.88;100966.19;5066788;28;20391;-65
2022/09/19 08:32:47;;;;;;;1.75;1.10;;;;;;;21.23;33.49;100973.09;5069593;28;20463;-64
2022/09/19 08:35:15;;;;;;;3.63;1.35;;;;;;;21.09;33.29;100954.47;5075827;28;20412;-65
2022/09/19 08:37:41;;;;;;;3.72;1.35;;;;;;;21.12;32.98;100959.41;5071428;28;21118;-65
2022/09/19 08:40:18;;;;;;;3.10;1.35;;;;;;;21.21;33.02;100951.75;5070464;28;20891;-64
2022/09/19 08:43:01;;;;;;;3.53;1.17;;;;;;;21.21;32.51;100951.75;5068886;28;20472;-65
2022/09/19 08:46:04;;;;;;;4.88;1.63;;;;;;;21.27;32.69;100948.16;5052775;28;20421;-65
2022/09/19 08:48:35;;;;;;;5.03;1.80;;;;;;;21.22;33.19;100939.13;5051768;28;20871;-64
2022/09/19 08:51:11;;;;;;;5.45;1.67;;;;;;;21.27;33.31;100936.56;5064051;28;20884;-64
2022/09/19 08:53:43;;;;;;;5.05;1.77;;;;;;;21.39;33.19;100940.88;5057645;28;20383;-64
2022/09/19 08:56:13;;;;;;;8.45;1.90;;;;;;;21.35;32.92;100934.28;5058868;28;20389;-64
2022/09/19 08:58:45;;;;;;;4.50;1.60;;;;;;;21.55;32.58;100933.97;5070597;28;20379;-64
2022/09/19 09:03:07;;;;;;;3.20;1.38;;;;;;;21.35;32.27;100931.59;5053034;28;20426;-64
2022/09/19 09:05:41;;;;;;;3.70;1.40;;;;;;;21.34;32.12;100929.97;5040846;28;20407;-65
2022/09/19 09:08:49;;;;;;;3.90;1.40;;;;;;;21.52;32.13;100929.03;5026534;28;20478;-65
2022/09/19 09:11:36;;;;;;;2.80;1.20;;;;;;;21.48;31.74;100919.78;5012620;28;20414;-64
2022/09/19 09:14:20;;;;;;;2.97;1.38;;;;;;;21.75;31.58;100913.84;5026708;28;20542;-64
2022/09/19 09:16:54;;;;;;;3.75;1.50;;;;;;;21.90;31.31;100910.63;5025346;28;20829;-65
2022/09/19 09:19:20;;;;;;;4.33;1.80;;;;;;;22.03;30.97;100901.41;5026268;28;20383;-64
2022/09/19 09:22:08;;;;;;;3.78;1.30;;;;;;;22.22;30.22;100899.31;5037879;28;20889;-65
2022/09/19 09:24:40;;;;;;;10.05;4.18;;;;;;;22.37;29.17;100896.13;5023980;28;20395;-65
2022/09/19 09:27:13;;;;;;;4.57;2.05;;;;;;;22.50;27.83;100884.97;5026952;28;20411;-65
2022/09/19 09:29:53;;;;;;;5.68;2.35;;;;;;;22.58;27.70;100884.59;5024082;28;20936;-66
2022/09/19 09:32:28;;;;;;;2.30;1.45;;;;;;;22.77;27.38;100885.13;5028653;28;20774;-66
2022/09/19 09:35:29;;;;;;;1.38;0.90;;;;;;;22.87;27.05;100876.38;5025180;28;20375;-65
2022/09/19 09:38:22;;;;;;;2.97;0.80;;;;;;;23.10;27.10;100867.25;5021890;28;20392;-66
2022/09/19 09:44:01;;;;;;;2.35;1.00;;;;;;;23.58;25.47;100857.56;5033929;28;20755;-65
2022/09/19 09:47:02;;;;;;;4.00;1.10;;;;;;;23.49;24.98;100850.97;5011674;28;20410;-65
2022/09/19 09:49:29;;;;;;;1.98;1.00;;;;;;;23.57;24.71;100839.72;5039908;28;20468;-65
2022/09/19 09:52:22;;;;;;;1.55;0.90;;;;;;;23.74;24.72;100842.31;5040064;28;20399;-65
2022/09/19 09:58:13;;;;;;;2.45;1.02;;;;;;;23.56;23.98;100834.56;5036767;28;20404;-66
2022/09/19 10:03:49;;;;;;;1.77;0.93;;;;;;;23.74;23.54;100845.03;5039404;28;20398;-65
2022/09/19 10:06:29;;;;;;;1.92;0.80;;;;;;;23.80;23.20;100835.91;5037486;28;20389;-66
2022/09/19 10:09:13;;;;;;;2.05;0.85;;;;;;;23.89;23.48;100827.34;5039805;28;20391;-65
2022/09/19 10:11:44;;;;;;;2.93;1.30;;;;;;;23.97;23.25;100835.00;5025532;28;20392;-65
2022/09/19 10:14:19;;;;;;;2.03;0.90;;;;;;;24.09;22.74;100832.13;5019942;28;20389;-65
2022/09/19 10:16:52;;;;;;;1.40;0.70;;;;;;;24.19;22.64;100824.09;5017593;28;20388;-66
2022/09/19 10:19:40;;;;;;;2.70;1.13;;;;;;;24.31;23.15;100826.59;5012414;28;20901;-65
2022/09/19 10:22:15;;;;;;;2.40;1.02;;;;;;;24.39;22.69;100828.84;5012269;28;20470;-65
2022/09/19 10:24:55;;;;;;;1.50;0.70;;;;;;;24.28;22.50;100810.88;5018792;28;20475;-65
2022/09/19 10:27:25;;;;;;;3.78;0.98;;;;;;;24.12;22.46;100801.81;5011453;28;20436;-66
2022/09/19 10:30:16;;;;;;;2.22;1.05;;;;;;;23.99;23.05;100813.91;5010180;28;20391;-66
2022/09/19 10:32:43;;;;;;;3.80;1.02;;;;;;;23.99;22.97;100811.19;5024559;28;20388;-64
2022/09/19 10:35:38;;;;;;;1.70;1.02;;;;;;;24.09;23.08;100808.56;4998932;28;20398;-63
2022/09/19 10:38:17;;;;;;;1.77;0.93;;;;;;;24.13;22.83;100801.56;5007461;28;20386;-66
2022/09/19 10:41:00;;;;;;;2.42;0.85;;;;;;;24.09;22.74;100808.56;5030060;28;20445;-66
2022/09/19 10:43:39;;;;;;;1.33;0.77;;;;;;;24.02;22.67;100799.81;5021786;28;20394;-65
2022/09/19 10:46:07;;;;;;;1.42;1.00;;;;;;;23.98;23.03;100798.72;5017276;28;20423;-63
2022/09/19 10:48:39;;;;;;;2.17;1.30;;;;;;;24.10;22.96;100791.25;5004445;28;20437;-65
2022/09/19 10:51:10;;;;;;;1.63;0.95;;;;;;;24.21;22.94;100789.44;5018931;28;20394;-63
2022/09/19 10:53:38;;;;;;;1.17;0.70;;;;;;;24.26;22.75;100789.47;5030938;28;20405;-66
2022/09/19 10:56:23;;;;;;;1.40;0.70;;;;;;;24.26;22.67;100788.66;5019735;28;20952;-65
2022/09/19 10:58:59;;;;;;;2.05;0.90;;;;;;;24.06;22.48;100782.00;5005116;28;20448;-65
2022/09/19 11:01:25;;;;;;;2.95;0.88;;;;;;;24.04;22.52;100773.31;5017640;28;20584;-66
2022/09/19 11:04:24;;;;;;;2.20;0.88;;;;;;;24.13;22.64;100765.50;4997838;28;20407;-65
2022/09/19 11:07:14;;;;;;;1.35;0.70;;;;;;;24.10;22.90;100752.53;5027354;28;20433;-65
2022/09/19 11:09:42;;;;;;;2.10;0.70;;;;;;;24.00;22.74;100755.94;5019499;28;20809;-65
2022/09/19 11:12:16;;;;;;;1.48;0.80;;;;;;;23.99;22.81;100749.72;5015333;28;20545;-65
2022/09/19 11:14:44;;;;;;;1.08;0.73;;;;;;;24.14;22.51;100754.44;5019796;28;20910;-66
2022/09/19 11:17:55;;;;;;;1.05;0.70;;;;;;;24.19;21.97;100753.66;5029084;28;20390;-66
2022/09/19 11:21:07;;;;;;;1.90;0.77;;;;;;;24.19;21.89;100746.34;5015126;28;20392;-66
2022/09/19 11:24:07;;;;;;;0.98;0.50;;;;;;;24.28;21.77;100741.25;5010789;28;20400;-66
2022/09/19 11:27:00;;;;;;;1.10;0.70;;;;;;;24.21;21.53;100727.13;5010781;28;20388;-66
2022/09/19 11:29:44;;;;;;;1.58;0.50;;;;;;;24.20;21.27;100737.16;5011011;28;20384;-66
2022/09/19 11:32:15;;;;;;;3.13;0.80;;;;;;;24.26;21.31;100723.66;5011125;28;20473;-66
2022/09/19 11:34:48;;;;;;;1.50;0.60;;;;;;;24.21;21.39;100714.41;5010810;28;20416;-65
2022/09/19 11:37:32;;;;;;;0.80;0.47;;;;;;;24.21;21.30;100724.41;5011082;28;20380;-65
2022/09/19 11:40:20;;;;;;;2.47;0.90;;;;;;;24.23;21.71;100727.69;5010566;28;20438;-65
2022/09/19 11:43:16;;;;;;;1.15;0.60;;;;;;;24.24;21.68;100737.44;5010743;28;20422;-65
2022/09/19 11:46:03;;;;;;;2.35;0.65;;;;;;;24.20;21.80;100726.31;5010524;28;20425;-65
2022/09/19 11:48:54;;;;;;;3.03;0.98;;;;;;;24.35;21.88;100743.75;5016472;28;20947;-65
2022/09/19 11:51:57;;;;;;;3.10;1.65;;;;;;;24.43;21.77;100732.41;5053942;28;20437;-65
2022/09/19 11:54:29;;;;;;;1.87;0.73;;;;;;;24.49;21.55;100727.81;5067001;28;20400;-64
2022/09/19 11:57:14;;;;;;;1.35;0.77;;;;;;;24.43;21.44;100727.81;5047624;28;20457;-64
2022/09/19 12:00:00;;;;;;;1.50;0.70;;;;;;;24.50;21.73;100718.63;5045664;28;20421;-65
2022/09/19 12:02:38;;;;;;;1.50;0.60;;;;;;;24.51;21.63;100715.66;5055269;28;20425;-65
2022/09/19 12:05:37;;;;;;;1.10;0.80;;;;;;;24.56;21.44;100707.59;5052154;28;20473;-65
2022/09/19 12:08:09;;;;;;;1.50;0.70;;;;;;;24.62;21.71;100708.44;5054266;28;20389;-65
2022/09/19 12:10:45;;;;;;;1.38;0.68;;;;;;;24.65;21.87;100702.50;5060140;28;20514;-65
2022/09/19 12:13:25;;;;;;;1.08;0.57;;;;;;;24.71;21.94;100701.41;5046302;28;20390;-66
2022/09/19 12:16:07;;;;;;;2.20;0.60;;;;;;;24.73;22.09;100696.53;5040067;28;20897;-65
2022/09/19 12:18:43;;;;;;;0.80;0.40;;;;;;;24.72;21.79;100692.22;5051245;28;20392;-65
2022/09/19 12:21:11;;;;;;;0.93;0.53;;;;;;;24.79;21.74;100684.66;5046303;28;20385;-65
2022/09/19 12:26:53;;;;;;;1.52;0.68;;;;;;;25.00;20.91;100676.56;5055918;28;20763;-65
2022/09/19 12:29:33;;;;;;;0.32;0.30;;;;;;;25.07;20.51;100681.75;5045815;28;20416;-65
2022/09/19 12:32:24;;;;;;;1.50;0.60;;;;;;;25.06;20.56;100669.25;5046045;28;20531;-66
2022/09/19 12:34:55;;;;;;;2.05;0.90;;;;;;;25.05;20.34;100665.75;5035436;28;20441;-64
2022/09/19 12:37:51;;;;;;;0.90;0.50;;;;;;;25.07;20.32;100674.41;5059998;28;20380;-64
2022/09/19 12:40:16;;;;;;;0.82;0.60;;;;;;;25.07;20.49;100665.47;5046056;28;20390;-64
2022/09/19 12:42:52;;;;;;;1.90;0.80;;;;;;;25.13;21.03;100667.91;5046150;28;20460;-64
2022/09/19 12:46:09;;;;;;;1.10;0.50;;;;;;;25.32;20.38;100662.03;5056964;28;20395;-64
2022/09/19 12:48:50;;;;;;;1.42;0.70;;;;;;;25.31;20.20;100660.38;5016386;28;20405;-64
2022/09/19 12:51:24;;;;;;;2.88;0.60;;;;;;;25.26;19.54;100653.03;5051651;28;20422;-64